トロンハイム の空港の天気 - METARとTAF

Trondheim / Vaernes ( ENVA / TRD ) - ノルウェー ヌール・トロンデラーグ県、Stjordal
飛行場実況気象(Metar)
観測時間09/23 12:50 CEST (09/23 10:50 UTC)
風向・風速西 3m/s
視程10km以上
天気現象
少しの雲 雲底高度 1310m
気温15℃
湿度72%
気圧1027hPa
METARENVA 231050Z 26006KT 9999 FEW043 15/10 Q1027 NOSIG RMK WIND 670FT 19010KT
過去の天気等 Google飛行場航空写真 Wunderground天気予報

過去48時間のMETAR

飛行場予報(TAF)
発表時間: -
24日0時 CEST ~ 24日8時 CEST に 確率 30% で一時的に
風向・風速南南東 8m/s 瞬間風速 13m/s
TAF ENVA 2306/2406 12008KT CAVOK
PROB30 TEMPO 2322/2406 16015G25KT